Port Au Choix, Canada
Current Conditions -  °F | °C
As of 4:06 PM on Thursday 30 Oct 2014 (Local Time) from CWDH Reporting Station
Broken Clouds Broken Clouds  
Wind Chill: 35°   Ceiling: 1300
Heat Index: 43°   Visibility: 9mi
Dew Point: 39°   Wind: 18mph
Humidity: 84%   Direction: 210°SSW
Pressure: 29.53"   Gusts: 25mph
Location:  50.72°N, 57.37°W
Report Text: CWDH 301806Z AUTO 21016G22KT 9SM BKN013 06/04 A2953 RMK PK WND 21029/// T00630037 WSI/SWOB
Loading
Personal Weather Stations






























Interactive Weather Map New forecast layout! Learn more

10-Day Weather Forecast

Advertisements
Track Severe Weather on mobile